createdAt,value
2019-02-15T00:01:05.559Z,57.30
2019-02-15T00:05:07.288Z,54.30
2019-02-15T00:09:09.662Z,54.00
2019-02-15T00:13:13.574Z,55.20
2019-02-15T00:17:11.424Z,54.20
2019-02-15T00:21:11.649Z,54.90
2019-02-15T00:25:10.222Z,55.90
2019-02-15T00:29:08.817Z,55.70
2019-02-15T00:33:07.409Z,57.00
2019-02-15T00:37:06.074Z,57.50
2019-02-15T00:41:04.642Z,57.40
2019-02-15T00:45:03.886Z,58.10
2019-02-15T00:49:03.149Z,59.50
2019-02-15T00:53:06.493Z,59.50
2019-02-15T00:57:12.499Z,60.00
2019-02-15T01:01:30.875Z,61.20
2019-02-15T01:05:33.945Z,62.70
2019-02-15T01:09:42.722Z,63.50
2019-02-15T01:13:41.985Z,64.00
2019-02-15T01:17:40.654Z,64.60
2019-02-15T01:21:39.574Z,65.10
2019-02-15T01:25:39.788Z,66.50
2019-02-15T01:30:01.027Z,66.30
2019-02-15T01:34:03.922Z,67.30
2019-02-15T01:38:04.430Z,67.80
2019-02-15T01:42:04.663Z,68.60
2019-02-15T01:46:04.918Z,69.50
2019-02-15T01:50:04.333Z,69.40
2019-02-15T01:54:02.940Z,69.70
2019-02-15T01:58:01.884Z,70.40
2019-02-15T02:02:00.624Z,71.30
2019-02-15T02:06:02.122Z,70.80
2019-02-15T02:10:00.861Z,71.00
2019-02-15T02:14:02.597Z,71.30
2019-02-15T02:18:01.182Z,71.50
2019-02-15T02:21:59.847Z,71.80
2019-02-15T02:25:58.418Z,71.80
2019-02-15T02:29:57.004Z,72.30
2019-02-15T02:33:55.596Z,72.50
2019-02-15T02:37:58.078Z,72.80
2019-02-15T02:41:56.578Z,72.50
2019-02-15T02:46:10.149Z,72.20
2019-02-15T02:50:08.822Z,72.10
2019-02-15T02:54:07.439Z,71.90
2019-02-15T02:58:06.029Z,72.20
2019-02-15T03:02:04.663Z,72.50
2019-02-15T03:06:03.842Z,72.70
2019-02-15T03:10:02.504Z,72.70
2019-02-15T03:14:11.086Z,72.80
2019-02-15T03:18:03.318Z,72.70
2019-02-15T03:22:01.868Z,72.40
2019-02-15T03:26:00.441Z,72.50
2019-02-15T03:29:59.062Z,72.40
2019-02-15T03:33:57.630Z,72.10
2019-02-15T03:38:06.820Z,72.80
2019-02-15T03:42:05.569Z,73.40
2019-02-15T03:46:04.180Z,73.90
2019-02-15T03:50:04.866Z,73.90
2019-02-15T03:54:03.088Z,74.00
2019-02-15T03:58:01.732Z,74.00
2019-02-15T04:02:02.998Z,73.80
2019-02-15T04:06:01.584Z,73.90
2019-02-15T04:10:00.490Z,74.30
2019-02-15T04:14:12.734Z,74.80
2019-02-15T04:18:19.103Z,75.10
2019-02-15T04:22:17.694Z,74.70
2019-02-15T04:26:16.261Z,74.70
2019-02-15T04:30:14.843Z,74.60
2019-02-15T04:34:13.762Z,74.50
2019-02-15T04:38:12.331Z,74.50
2019-02-15T04:42:11.390Z,75.00
2019-02-15T04:46:09.997Z,74.30
2019-02-15T04:50:09.488Z,74.50
2019-02-15T04:54:08.093Z,74.10
2019-02-15T04:58:06.663Z,74.20
2019-02-15T05:02:05.301Z,74.30
2019-02-15T05:06:03.901Z,74.60
2019-02-15T05:10:02.748Z,74.40
2019-02-15T05:14:01.779Z,74.10
2019-02-15T05:18:00.428Z,74.20
2019-02-15T05:21:58.996Z,74.40
2019-02-15T05:26:01.529Z,75.00
2019-02-15T05:30:00.360Z,74.70
2019-02-15T05:33:59.133Z,75.20
2019-02-15T05:37:57.717Z,75.00
2019-02-15T05:41:56.289Z,75.20
2019-02-15T05:45:54.890Z,75.80
2019-02-15T05:49:55.964Z,76.30
2019-02-15T05:53:54.582Z,76.70
2019-02-15T05:57:53.545Z,76.70
2019-02-15T06:01:52.130Z,76.70
2019-02-15T06:05:50.775Z,76.70
2019-02-15T06:09:49.392Z,76.50
2019-02-15T06:13:48.057Z,76.20
2019-02-15T06:17:46.747Z,76.10
2019-02-15T06:21:45.354Z,75.90
2019-02-15T06:25:43.926Z,75.80
2019-02-15T06:29:42.495Z,75.60
2019-02-15T06:33:41.062Z,75.80
2019-02-15T06:37:39.978Z,76.20
2019-02-15T06:41:39.649Z,76.00
2019-02-15T06:45:38.140Z,75.80
2019-02-15T06:49:36.757Z,76.00
2019-02-15T06:53:37.268Z,76.30
2019-02-15T06:57:35.813Z,76.30
2019-02-15T07:01:53.762Z,76.30
2019-02-15T07:05:52.309Z,76.40
2019-02-15T07:09:50.887Z,76.20
2019-02-15T07:13:49.587Z,75.90
2019-02-15T07:17:48.183Z,75.70
2019-02-15T07:21:46.762Z,75.70
2019-02-15T07:25:45.321Z,75.40
2019-02-15T07:29:43.922Z,75.60
2019-02-15T07:33:42.494Z,75.90
2019-02-15T07:37:41.112Z,74.60
2019-02-15T07:41:39.718Z,73.60
2019-02-15T07:45:43.233Z,71.90
2019-02-15T07:49:41.301Z,71.00
2019-02-15T07:53:39.868Z,70.20
2019-02-15T07:57:38.656Z,68.90
2019-02-15T08:01:37.245Z,68.90
2019-02-15T08:05:37.209Z,67.40
2019-02-15T08:09:35.868Z,67.70
2019-02-15T08:13:34.470Z,67.30
2019-02-15T08:17:33.023Z,67.40
2019-02-15T08:21:34.055Z,66.60
2019-02-15T08:25:32.657Z,66.90
2019-02-15T08:29:31.239Z,65.50
2019-02-15T08:33:29.847Z,77.50
2019-02-15T08:37:28.441Z,64.50
2019-02-15T08:41:27.048Z,60.70
2019-02-15T08:45:25.622Z,59.20
2019-02-15T08:49:24.221Z,59.50
2019-02-15T08:53:27.342Z,58.70
2019-02-15T08:57:26.315Z,60.10
2019-02-15T09:01:25.238Z,61.70
2019-02-15T09:05:23.833Z,61.60
2019-02-15T09:09:22.721Z,61.90
2019-02-15T09:13:24.173Z,61.60
2019-02-15T09:17:22.799Z,61.10
2019-02-15T09:21:21.391Z,62.50
2019-02-15T09:25:22.427Z,61.80
2019-02-15T09:29:22.491Z,61.20
2019-02-15T09:33:21.384Z,61.90
2019-02-15T09:37:20.010Z,62.60
2019-02-15T09:41:18.606Z,60.40
2019-02-15T09:45:17.301Z,60.60
2019-02-15T09:49:15.879Z,60.70
2019-02-15T09:53:14.521Z,61.20
2019-02-15T09:57:13.268Z,60.20
2019-02-15T10:01:11.820Z,60.00
2019-02-15T10:05:10.947Z,59.90
2019-02-15T10:09:13.119Z,61.70
2019-02-15T10:13:14.512Z,60.80
2019-02-15T10:17:13.187Z,60.60
2019-02-15T10:21:11.736Z,61.70
2019-02-15T10:25:11.049Z,60.40
2019-02-15T10:29:17.161Z,61.40
2019-02-15T10:33:15.727Z,60.60
2019-02-15T10:37:14.777Z,60.70
2019-02-15T10:41:13.366Z,60.40
2019-02-15T10:45:16.952Z,59.80
2019-02-15T10:49:15.615Z,60.80
2019-02-15T10:53:20.498Z,60.10
2019-02-15T10:57:19.501Z,59.20
2019-02-15T11:01:18.216Z,59.10
2019-02-15T11:05:19.959Z,59.60
2019-02-15T11:09:18.523Z,58.80
2019-02-15T11:13:17.197Z,59.70
2019-02-15T11:17:15.866Z,59.70
2019-02-15T11:21:15.396Z,57.70
2019-02-15T11:25:14.076Z,58.30
2019-02-15T11:29:12.638Z,57.40
2019-02-15T11:33:11.225Z,56.30
2019-02-15T11:37:10.134Z,58.60
2019-02-15T11:41:11.701Z,57.70
2019-02-15T11:45:12.335Z,57.20
2019-02-15T11:49:10.941Z,58.40
2019-02-15T11:53:09.627Z,57.90
2019-02-15T11:57:09.996Z,57.70
2019-02-15T12:01:08.566Z,54.10
2019-02-15T12:05:11.025Z,51.20
2019-02-15T12:09:09.593Z,52.10
2019-02-15T12:13:11.142Z,53.20
2019-02-15T12:17:09.846Z,54.30
2019-02-15T12:21:08.504Z,53.10
2019-02-15T12:25:08.451Z,50.60
2019-02-15T12:29:07.058Z,50.70
2019-02-15T12:33:05.650Z,51.20
2019-02-15T12:37:04.250Z,52.90
2019-02-15T12:41:02.865Z,52.40
2019-02-15T12:45:01.454Z,53.00
2019-02-15T12:49:00.068Z,50.90
2019-02-15T12:52:58.633Z,51.00
2019-02-15T12:56:57.229Z,48.70
2019-02-15T13:00:56.175Z,49.10
2019-02-15T13:04:54.744Z,50.10
2019-02-15T13:08:56.435Z,51.10
2019-02-15T13:12:55.003Z,51.80
2019-02-15T13:16:53.624Z,52.90
2019-02-15T13:20:52.586Z,49.40
2019-02-15T13:24:51.210Z,50.30
2019-02-15T13:28:49.828Z,51.20
2019-02-15T13:32:48.405Z,51.00
2019-02-15T13:36:47.400Z,51.60
2019-02-15T13:40:47.624Z,51.40
2019-02-15T13:44:46.266Z,51.00
2019-02-15T13:48:44.866Z,52.00
2019-02-15T13:52:46.558Z,51.70
2019-02-15T13:56:49.228Z,51.60
2019-02-15T14:00:50.065Z,51.10
2019-02-15T14:04:48.727Z,50.90
2019-02-15T14:08:47.321Z,51.00
2019-02-15T14:12:46.258Z,51.70
2019-02-15T14:16:44.849Z,51.40
2019-02-15T14:20:43.432Z,51.20
2019-02-15T14:24:42.487Z,50.70
2019-02-15T14:28:41.075Z,50.70
2019-02-15T14:32:40.654Z,50.80
2019-02-15T14:36:39.225Z,50.40
2019-02-15T14:40:37.821Z,50.30
2019-02-15T14:44:41.557Z,50.80
2019-02-15T14:48:40.159Z,50.50
2019-02-15T14:52:39.078Z,50.40
2019-02-15T14:56:37.650Z,48.90
2019-02-15T15:00:39.028Z,49.90
2019-02-15T15:04:38.283Z,49.30
2019-02-15T15:08:36.809Z,48.10
2019-02-15T15:12:35.407Z,48.70
2019-02-15T15:16:34.235Z,47.90
2019-02-15T15:20:32.841Z,48.90
2019-02-15T15:24:31.411Z,48.20
2019-02-15T15:28:33.708Z,49.20
2019-02-15T15:32:32.310Z,50.30
2019-02-15T15:36:31.224Z,49.60
2019-02-15T15:40:30.196Z,50.10
2019-02-15T15:44:28.925Z,50.10
2019-02-15T15:48:27.930Z,49.90
2019-02-15T15:52:26.473Z,50.50
2019-02-15T15:56:25.322Z,49.80
2019-02-15T16:00:26.771Z,48.60
2019-02-15T16:08:46.137Z,46.60
2019-02-15T16:12:51.007Z,47.10
2019-02-15T16:16:49.635Z,46.70
2019-02-15T16:20:48.248Z,46.70
2019-02-15T16:24:47.169Z,48.20
2019-02-15T16:28:45.804Z,50.70
2019-02-15T16:32:47.174Z,52.20
2019-02-15T16:36:48.436Z,52.50
2019-02-15T16:40:47.121Z,52.90
2019-02-15T16:44:45.675Z,53.70
2019-02-15T16:48:45.087Z,53.20
2019-02-15T16:52:43.997Z,53.70
2019-02-15T16:56:42.930Z,53.50
2019-02-15T17:00:43.023Z,53.30
2019-02-15T17:04:44.604Z,53.40
2019-02-15T17:08:43.189Z,53.70
2019-02-15T17:12:41.876Z,53.70
2019-02-15T17:16:40.482Z,53.30
2019-02-15T17:20:39.028Z,53.00
2019-02-15T17:24:38.413Z,52.90
2019-02-15T17:28:37.004Z,53.10
2019-02-15T17:32:35.586Z,52.80
2019-02-15T17:36:34.215Z,52.90
2019-02-15T17:40:32.815Z,53.50
2019-02-15T17:44:31.465Z,54.00
2019-02-15T17:48:30.224Z,54.20
2019-02-15T17:52:34.917Z,54.40
2019-02-15T17:56:33.683Z,54.80
2019-02-15T18:00:32.996Z,54.80
2019-02-15T18:04:31.956Z,54.90
2019-02-15T18:08:35.042Z,55.10
2019-02-15T18:12:33.630Z,55.20
2019-02-15T18:16:32.228Z,55.70
2019-02-15T18:20:31.320Z,55.60
2019-02-15T18:24:29.883Z,55.90
2019-02-15T18:28:29.399Z,55.90
2019-02-15T18:32:28.461Z,56.00
2019-02-15T18:36:28.597Z,55.90
2019-02-15T18:40:27.331Z,55.90
2019-02-15T18:44:25.970Z,56.10
2019-02-15T18:48:27.598Z,56.30
2019-02-15T18:52:29.358Z,56.70
2019-02-15T18:56:27.943Z,56.70
2019-02-15T19:00:27.718Z,56.40
2019-02-15T19:04:27.765Z,56.50
2019-02-15T19:08:26.356Z,56.50
2019-02-15T19:12:25.017Z,56.00
2019-02-15T19:16:23.617Z,55.30
2019-02-15T19:20:22.336Z,55.80
2019-02-15T19:24:20.909Z,55.40
2019-02-15T19:28:19.585Z,56.00
2019-02-15T19:32:18.336Z,56.00
2019-02-15T19:36:17.191Z,56.00
2019-02-15T19:40:18.815Z,56.60
2019-02-15T19:44:17.450Z,56.60
2019-02-15T19:48:16.046Z,57.10
2019-02-15T19:52:14.809Z,56.60
2019-02-15T19:56:16.314Z,57.10
2019-02-15T20:00:19.114Z,57.40
2019-02-15T20:04:21.052Z,57.40
2019-02-15T20:08:19.630Z,57.70
2019-02-15T20:12:20.214Z,57.50
2019-02-15T20:16:18.802Z,58.00
2019-02-15T20:20:18.243Z,57.90
2019-02-15T20:24:16.832Z,58.10
2019-02-15T20:28:17.475Z,57.90
2019-02-15T20:32:18.103Z,57.90
2019-02-15T20:36:16.680Z,58.30
2019-02-15T20:40:15.272Z,58.30
2019-02-15T20:44:13.888Z,58.70
2019-02-15T20:48:13.353Z,58.80
2019-02-15T20:52:12.150Z,59.00
2019-02-15T20:56:10.748Z,59.00
2019-02-15T21:00:15.920Z,59.50
2019-02-15T21:04:14.513Z,59.50
2019-02-15T21:08:13.100Z,59.40
2019-02-15T21:12:11.697Z,59.50
2019-02-15T21:16:10.276Z,59.60
2019-02-15T21:20:13.707Z,59.70
2019-02-15T21:24:12.216Z,59.70
2019-02-15T21:28:10.828Z,60.10
2019-02-15T21:32:10.208Z,60.50
2019-02-15T21:36:08.834Z,60.60
2019-02-15T21:40:10.777Z,60.90
2019-02-15T21:44:09.361Z,62.00
2019-02-15T21:48:07.953Z,61.90
2019-02-15T21:52:06.601Z,62.80
2019-02-15T21:56:05.236Z,63.20
2019-02-15T22:00:08.293Z,64.40
2019-02-15T22:04:06.950Z,63.80
2019-02-15T22:08:05.602Z,65.00
2019-02-15T22:12:04.194Z,65.90
2019-02-15T22:16:03.202Z,65.90
2019-02-15T22:20:01.810Z,66.40
2019-02-15T22:24:00.415Z,65.70
2019-02-15T22:27:59.042Z,65.60
2019-02-15T22:31:57.607Z,65.50
2019-02-15T22:35:56.191Z,65.60
2019-02-15T22:39:54.769Z,66.10
2019-02-15T22:43:53.341Z,67.10
2019-02-15T22:47:52.002Z,67.50
2019-02-15T22:51:50.582Z,67.90
2019-02-15T22:55:49.180Z,68.50
2019-02-15T22:59:48.041Z,68.90
2019-02-15T23:03:48.822Z,70.00
2019-02-15T23:07:47.409Z,69.20
2019-02-15T23:11:46.053Z,69.00
2019-02-15T23:15:44.616Z,69.40
2019-02-15T23:19:43.206Z,69.20
2019-02-15T23:23:41.793Z,69.50
2019-02-15T23:27:40.357Z,70.00
2019-02-15T23:31:39.009Z,70.40
2019-02-15T23:35:37.604Z,70.50
2019-02-15T23:39:36.185Z,70.40
2019-02-15T23:43:35.830Z,70.30
2019-02-15T23:47:34.448Z,71.00
2019-02-15T23:51:35.853Z,70.70
2019-02-15T23:55:34.449Z,70.70
2019-02-15T23:59:33.049Z,71.40
